sensor_id;sensor_type;location;lat;lon;timestamp;temperature;humidity
10868;DHT22;62667;48.698;8.762;2022-12-18T00:02:27;-8.20;61.70
10868;DHT22;62667;48.698;8.762;2022-12-18T00:04:54;-8.30;62.20
10868;DHT22;62667;48.698;8.762;2022-12-18T00:07:21;-8.20;62.00
10868;DHT22;62667;48.698;8.762;2022-12-18T00:09:48;-8.20;61.90
10868;DHT22;62667;48.698;8.762;2022-12-18T00:12:15;-8.20;61.90
10868;DHT22;62667;48.698;8.762;2022-12-18T00:14:45;-8.30;61.00
10868;DHT22;62667;48.698;8.762;2022-12-18T00:17:12;-8.40;61.00
10868;DHT22;62667;48.698;8.762;2022-12-18T00:19:41;-8.50;60.60
10868;DHT22;62667;48.698;8.762;2022-12-18T00:22:08;-8.50;61.30
10868;DHT22;62667;48.698;8.762;2022-12-18T00:24:35;-8.50;61.30
10868;DHT22;62667;48.698;8.762;2022-12-18T00:27:02;-8.40;61.10
10868;DHT22;62667;48.698;8.762;2022-12-18T00:29:29;-8.40;61.20
10868;DHT22;62667;48.698;8.762;2022-12-18T00:31:56;-8.40;61.00
10868;DHT22;62667;48.698;8.762;2022-12-18T00:34:23;-8.40;60.60
10868;DHT22;62667;48.698;8.762;2022-12-18T00:36:51;-8.50;60.40
10868;DHT22;62667;48.698;8.762;2022-12-18T00:39:18;-8.60;60.80
10868;DHT22;62667;48.698;8.762;2022-12-18T00:41:46;-8.60;61.00
10868;DHT22;62667;48.698;8.762;2022-12-18T00:44:31;-8.60;61.10
10868;DHT22;62667;48.698;8.762;2022-12-18T00:46:58;-8.50;60.90
10868;DHT22;62667;48.698;8.762;2022-12-18T00:49:25;-8.60;60.50
10868;DHT22;62667;48.698;8.762;2022-12-18T00:51:56;-8.60;60.10
10868;DHT22;62667;48.698;8.762;2022-12-18T00:54:23;-8.70;60.30
10868;DHT22;62667;48.698;8.762;2022-12-18T00:56:50;-8.70;60.30
10868;DHT22;62667;48.698;8.762;2022-12-18T00:59:18;-8.80;60.60
10868;DHT22;62667;48.698;8.762;2022-12-18T01:01:45;-8.70;61.20
10868;DHT22;62667;48.698;8.762;2022-12-18T01:04:13;-8.80;61.10
10868;DHT22;62667;48.698;8.762;2022-12-18T01:06:40;-8.70;61.30
10868;DHT22;62667;48.698;8.762;2022-12-18T01:09:09;-8.80;60.70
10868;DHT22;62667;48.698;8.762;2022-12-18T01:11:36;-8.90;61.30
10868;DHT22;62667;48.698;8.762;2022-12-18T01:14:03;-8.80;60.90
10868;DHT22;62667;48.698;8.762;2022-12-18T01:16:30;-8.70;61.00
10868;DHT22;62667;48.698;8.762;2022-12-18T01:18:57;-8.80;60.70
10868;DHT22;62667;48.698;8.762;2022-12-18T01:21:24;-8.70;60.90
10868;DHT22;62667;48.698;8.762;2022-12-18T01:23:52;-8.80;61.10
10868;DHT22;62667;48.698;8.762;2022-12-18T01:26:22;-8.70;61.50
10868;DHT22;62667;48.698;8.762;2022-12-18T01:28:49;-8.60;61.50
10868;DHT22;62667;48.698;8.762;2022-12-18T01:31:18;-8.50;60.70
10868;DHT22;62667;48.698;8.762;2022-12-18T01:33:50;-8.50;61.00
10868;DHT22;62667;48.698;8.762;2022-12-18T01:36:19;-8.40;61.40
10868;DHT22;62667;48.698;8.762;2022-12-18T01:38:48;-8.40;61.30
10868;DHT22;62667;48.698;8.762;2022-12-18T01:41:18;-8.40;60.40
10868;DHT22;62667;48.698;8.762;2022-12-18T01:43:51;-8.50;60.40
10868;DHT22;62667;48.698;8.762;2022-12-18T01:46:21;-8.60;59.90
10868;DHT22;62667;48.698;8.762;2022-12-18T01:48:56;-8.60;59.50
10868;DHT22;62667;48.698;8.762;2022-12-18T01:51:26;-8.60;59.80
10868;DHT22;62667;48.698;8.762;2022-12-18T01:53:55;-8.50;60.20
10868;DHT22;62667;48.698;8.762;2022-12-18T01:56:23;-8.50;60.00
10868;DHT22;62667;48.698;8.762;2022-12-18T01:58:56;-8.70;59.60
10868;DHT22;62667;48.698;8.762;2022-12-18T02:01:29;-8.80;59.30
10868;DHT22;62667;48.698;8.762;2022-12-18T02:04:20;-8.70;59.50
10868;DHT22;62667;48.698;8.762;2022-12-18T02:06:52;-8.60;60.30
10868;DHT22;62667;48.698;8.762;2022-12-18T02:09:31;-8.50;61.50
10868;DHT22;62667;48.698;8.762;2022-12-18T02:12:08;-8.50;60.30
10868;DHT22;62667;48.698;8.762;2022-12-18T02:14:45;-8.60;59.70
10868;DHT22;62667;48.698;8.762;2022-12-18T02:17:19;-8.70;59.30
10868;DHT22;62667;48.698;8.762;2022-12-18T02:20:01;-8.80;58.90
10868;DHT22;62667;48.698;8.762;2022-12-18T02:22:44;-8.80;59.60
10868;DHT22;62667;48.698;8.762;2022-12-18T02:25:40;-8.80;59.70
10868;DHT22;62667;48.698;8.762;2022-12-18T02:28:20;-8.80;59.60
10868;DHT22;62667;48.698;8.762;2022-12-18T02:30:53;-8.80;59.60
10868;DHT22;62667;48.698;8.762;2022-12-18T02:33:26;-8.90;59.70
10868;DHT22;62667;48.698;8.762;2022-12-18T02:35:56;-8.80;60.40
10868;DHT22;62667;48.698;8.762;2022-12-18T02:38:25;-8.80;60.40
10868;DHT22;62667;48.698;8.762;2022-12-18T02:40:54;-8.80;59.70
10868;DHT22;62667;48.698;8.762;2022-12-18T02:43:23;-8.60;60.30
10868;DHT22;62667;48.698;8.762;2022-12-18T02:45:53;-8.80;60.20
10868;DHT22;62667;48.698;8.762;2022-12-18T02:48:26;-8.80;60.60
10868;DHT22;62667;48.698;8.762;2022-12-18T02:51:03;-8.80;61.70
10868;DHT22;62667;48.698;8.762;2022-12-18T02:53:39;-8.70;62.00
10868;DHT22;62667;48.698;8.762;2022-12-18T02:56:15;-8.80;62.50
10868;DHT22;62667;48.698;8.762;2022-12-18T02:58:54;-8.70;63.40
10868;DHT22;62667;48.698;8.762;2022-12-18T03:01:30;-8.50;63.40
10868;DHT22;62667;48.698;8.762;2022-12-18T03:04:07;-8.50;62.50
10868;DHT22;62667;48.698;8.762;2022-12-18T03:06:41;-8.70;61.60
10868;DHT22;62667;48.698;8.762;2022-12-18T03:09:17;-8.70;61.90
10868;DHT22;62667;48.698;8.762;2022-12-18T03:11:54;-8.70;62.70
10868;DHT22;62667;48.698;8.762;2022-12-18T03:14:43;-8.70;62.10
10868;DHT22;62667;48.698;8.762;2022-12-18T03:17:15;-8.80;62.40
10868;DHT22;62667;48.698;8.762;2022-12-18T03:19:46;-8.80;63.10
10868;DHT22;62667;48.698;8.762;2022-12-18T03:22:16;-8.80;63.00
10868;DHT22;62667;48.698;8.762;2022-12-18T03:24:45;-8.90;63.10
10868;DHT22;62667;48.698;8.762;2022-12-18T03:27:18;-8.90;63.30
10868;DHT22;62667;48.698;8.762;2022-12-18T03:29:49;-8.90;63.10
10868;DHT22;62667;48.698;8.762;2022-12-18T03:32:25;-9.10;62.40
10868;DHT22;62667;48.698;8.762;2022-12-18T03:34:58;-9.20;63.30
10868;DHT22;62667;48.698;8.762;2022-12-18T03:37:32;-9.20;63.40
10868;DHT22;62667;48.698;8.762;2022-12-18T03:40:00;-9.10;64.10
10868;DHT22;62667;48.698;8.762;2022-12-18T03:42:30;-9.00;66.10
10868;DHT22;62667;48.698;8.762;2022-12-18T03:45:06;-8.80;69.80
10868;DHT22;62667;48.698;8.762;2022-12-18T03:47:41;-8.50;71.60
10868;DHT22;62667;48.698;8.762;2022-12-18T03:50:20;-8.50;69.50
10868;DHT22;62667;48.698;8.762;2022-12-18T03:52:53;-8.60;68.10
10868;DHT22;62667;48.698;8.762;2022-12-18T03:55:28;-8.60;69.00
10868;DHT22;62667;48.698;8.762;2022-12-18T03:58:02;-8.50;70.30
10868;DHT22;62667;48.698;8.762;2022-12-18T04:00:33;-8.40;70.60
10868;DHT22;62667;48.698;8.762;2022-12-18T04:03:02;-8.50;69.40
10868;DHT22;62667;48.698;8.762;2022-12-18T04:05:33;-8.50;69.30
10868;DHT22;62667;48.698;8.762;2022-12-18T04:08:03;-8.60;68.60
10868;DHT22;62667;48.698;8.762;2022-12-18T04:10:31;-8.70;68.60
10868;DHT22;62667;48.698;8.762;2022-12-18T04:12:59;-8.60;69.00
10868;DHT22;62667;48.698;8.762;2022-12-18T04:15:26;-8.50;70.70
10868;DHT22;62667;48.698;8.762;2022-12-18T04:17:53;-8.40;71.60
10868;DHT22;62667;48.698;8.762;2022-12-18T04:20:21;-8.40;72.30
10868;DHT22;62667;48.698;8.762;2022-12-18T04:22:48;-8.30;74.90
10868;DHT22;62667;48.698;8.762;2022-12-18T04:25:15;-8.30;79.10
10868;DHT22;62667;48.698;8.762;2022-12-18T04:27:42;-8.20;80.90
10868;DHT22;62667;48.698;8.762;2022-12-18T04:30:11;-8.20;82.20
10868;DHT22;62667;48.698;8.762;2022-12-18T04:32:38;-8.20;83.30
10868;DHT22;62667;48.698;8.762;2022-12-18T04:35:05;-8.10;84.00
10868;DHT22;62667;48.698;8.762;2022-12-18T04:37:36;-8.10;84.30
10868;DHT22;62667;48.698;8.762;2022-12-18T04:40:03;-8.00;84.90
10868;DHT22;62667;48.698;8.762;2022-12-18T04:42:31;-8.00;85.30
10868;DHT22;62667;48.698;8.762;2022-12-18T04:44:58;-8.00;85.40
10868;DHT22;62667;48.698;8.762;2022-12-18T04:47:26;-7.90;85.90
10868;DHT22;62667;48.698;8.762;2022-12-18T04:49:53;-7.90;86.30
10868;DHT22;62667;48.698;8.762;2022-12-18T04:52:20;-7.70;88.30
10868;DHT22;62667;48.698;8.762;2022-12-18T04:54:47;-7.60;88.50
10868;DHT22;62667;48.698;8.762;2022-12-18T04:57:14;-7.60;88.70
10868;DHT22;62667;48.698;8.762;2022-12-18T04:59:43;-7.40;89.50
10868;DHT22;62667;48.698;8.762;2022-12-18T05:02:10;-7.50;90.20
10868;DHT22;62667;48.698;8.762;2022-12-18T05:04:39;-7.30;92.20
10868;DHT22;62667;48.698;8.762;2022-12-18T05:07:06;-7.30;93.20
10868;DHT22;62667;48.698;8.762;2022-12-18T05:09:33;-7.20;91.20
10868;DHT22;62667;48.698;8.762;2022-12-18T05:12:00;-7.30;90.20
10868;DHT22;62667;48.698;8.762;2022-12-18T05:14:27;-7.30;89.80
10868;DHT22;62667;48.698;8.762;2022-12-18T05:16:54;-7.30;89.40
10868;DHT22;62667;48.698;8.762;2022-12-18T05:19:22;-7.30;88.90
10868;DHT22;62667;48.698;8.762;2022-12-18T05:21:50;-7.30;88.90
10868;DHT22;62667;48.698;8.762;2022-12-18T05:24:17;-7.50;89.10
10868;DHT22;62667;48.698;8.762;2022-12-18T05:26:44;-7.40;89.50
10868;DHT22;62667;48.698;8.762;2022-12-18T05:29:11;-7.30;89.30
10868;DHT22;62667;48.698;8.762;2022-12-18T05:31:38;-7.30;89.60
10868;DHT22;62667;48.698;8.762;2022-12-18T05:34:05;-7.30;89.30
10868;DHT22;62667;48.698;8.762;2022-12-18T05:36:32;-7.30;89.50
10868;DHT22;62667;48.698;8.762;2022-12-18T05:39:01;-7.20;89.30
10868;DHT22;62667;48.698;8.762;2022-12-18T05:41:28;-7.20;89.80
10868;DHT22;62667;48.698;8.762;2022-12-18T05:43:55;-7.10;90.90
10868;DHT22;62667;48.698;8.762;2022-12-18T05:46:22;-7.10;91.00
10868;DHT22;62667;48.698;8.762;2022-12-18T05:48:49;-7.10;91.50
10868;DHT22;62667;48.698;8.762;2022-12-18T05:51:18;-6.90;92.00
10868;DHT22;62667;48.698;8.762;2022-12-18T05:56:18;-6.80;90.50
10868;DHT22;62667;48.698;8.762;2022-12-18T05:58:47;-6.80;91.30
10868;DHT22;62667;48.698;8.762;2022-12-18T06:01:19;-6.80;91.30
10868;DHT22;62667;48.698;8.762;2022-12-18T06:03:48;-6.70;91.70
10868;DHT22;62667;48.698;8.762;2022-12-18T06:06:17;-6.60;91.60
10868;DHT22;62667;48.698;8.762;2022-12-18T06:08:46;-6.60;91.30
10868;DHT22;62667;48.698;8.762;2022-12-18T06:11:18;-6.50;91.40
10868;DHT22;62667;48.698;8.762;2022-12-18T06:13:49;-6.50;91.20
10868;DHT22;62667;48.698;8.762;2022-12-18T06:16:17;-6.50;91.10
10868;DHT22;62667;48.698;8.762;2022-12-18T06:18:44;-6.50;91.30
10868;DHT22;62667;48.698;8.762;2022-12-18T06:21:12;-6.40;91.40
10868;DHT22;62667;48.698;8.762;2022-12-18T06:23:39;-6.40;91.70
10868;DHT22;62667;48.698;8.762;2022-12-18T06:26:06;-6.30;91.90
10868;DHT22;62667;48.698;8.762;2022-12-18T06:28:36;-6.30;91.70
10868;DHT22;62667;48.698;8.762;2022-12-18T06:31:04;-6.30;92.30
10868;DHT22;62667;48.698;8.762;2022-12-18T06:33:32;-6.30;92.40
10868;DHT22;62667;48.698;8.762;2022-12-18T06:36:02;-6.30;93.30
10868;DHT22;62667;48.698;8.762;2022-12-18T06:38:33;-6.30;93.90
10868;DHT22;62667;48.698;8.762;2022-12-18T06:41:06;-6.30;94.20
10868;DHT22;62667;48.698;8.762;2022-12-18T06:43:33;-6.20;94.00
10868;DHT22;62667;48.698;8.762;2022-12-18T06:46:02;-6.30;93.70
10868;DHT22;62667;48.698;8.762;2022-12-18T06:48:31;-6.20;93.50
10868;DHT22;62667;48.698;8.762;2022-12-18T06:50:59;-6.20;93.60
10868;DHT22;62667;48.698;8.762;2022-12-18T06:53:26;-6.20;93.60
10868;DHT22;62667;48.698;8.762;2022-12-18T06:55:59;-6.00;93.10
10868;DHT22;62667;48.698;8.762;2022-12-18T06:58:27;-6.10;91.50
10868;DHT22;62667;48.698;8.762;2022-12-18T07:00:59;-6.20;91.90
10868;DHT22;62667;48.698;8.762;2022-12-18T07:03:29;-6.30;91.80
10868;DHT22;62667;48.698;8.762;2022-12-18T07:05:56;-6.40;92.80
10868;DHT22;62667;48.698;8.762;2022-12-18T07:08:23;-6.40;93.20
10868;DHT22;62667;48.698;8.762;2022-12-18T07:10:50;-6.40;93.70
10868;DHT22;62667;48.698;8.762;2022-12-18T07:15:46;-6.40;99.90
10868;DHT22;62667;48.698;8.762;2022-12-18T07:18:13;-6.20;95.40
10868;DHT22;62667;48.698;8.762;2022-12-18T07:20:41;-6.20;95.10
10868;DHT22;62667;48.698;8.762;2022-12-18T07:23:08;-6.10;95.10
10868;DHT22;62667;48.698;8.762;2022-12-18T07:25:35;-6.00;95.10
10868;DHT22;62667;48.698;8.762;2022-12-18T07:28:03;-6.00;95.10
10868;DHT22;62667;48.698;8.762;2022-12-18T07:30:31;-6.00;95.60
10868;DHT22;62667;48.698;8.762;2022-12-18T07:32:58;-5.90;95.50
10868;DHT22;62667;48.698;8.762;2022-12-18T07:35:25;-6.00;94.20
10868;DHT22;62667;48.698;8.762;2022-12-18T07:37:54;-5.90;94.60
10868;DHT22;62667;48.698;8.762;2022-12-18T07:40:21;-6.00;94.00
10868;DHT22;62667;48.698;8.762;2022-12-18T07:42:48;-6.20;93.60
10868;DHT22;62667;48.698;8.762;2022-12-18T07:45:15;-6.20;94.30
10868;DHT22;62667;48.698;8.762;2022-12-18T07:47:42;-6.20;94.30
10868;DHT22;62667;48.698;8.762;2022-12-18T07:50:09;-6.20;94.50
10868;DHT22;62667;48.698;8.762;2022-12-18T07:52:36;-6.20;94.70
10868;DHT22;62667;48.698;8.762;2022-12-18T07:55:05;-6.10;95.50
10868;DHT22;62667;48.698;8.762;2022-12-18T07:57:33;-6.00;96.30
10868;DHT22;62667;48.698;8.762;2022-12-18T08:00:00;-5.90;96.20
10868;DHT22;62667;48.698;8.762;2022-12-18T08:02:30;-5.80;95.80
10868;DHT22;62667;48.698;8.762;2022-12-18T08:04:57;-5.90;94.70
10868;DHT22;62667;48.698;8.762;2022-12-18T08:07:24;-5.80;95.30
10868;DHT22;62667;48.698;8.762;2022-12-18T08:09:51;-5.80;94.80
10868;DHT22;62667;48.698;8.762;2022-12-18T08:14:47;-5.70;94.20
10868;DHT22;62667;48.698;8.762;2022-12-18T08:17:14;-5.50;95.10
10868;DHT22;62667;48.698;8.762;2022-12-18T08:19:41;-5.40;94.50
10868;DHT22;62667;48.698;8.762;2022-12-18T08:22:08;-5.50;95.00
10868;DHT22;62667;48.698;8.762;2022-12-18T08:24:35;-5.40;94.10
10868;DHT22;62667;48.698;8.762;2022-12-18T08:27:02;-5.20;94.40
10868;DHT22;62667;48.698;8.762;2022-12-18T08:29:31;-5.00;94.20
10868;DHT22;62667;48.698;8.762;2022-12-18T08:31:59;-4.90;94.40
10868;DHT22;62667;48.698;8.762;2022-12-18T08:34:26;-4.70;94.00
10868;DHT22;62667;48.698;8.762;2022-12-18T08:36:53;-4.50;92.80
10868;DHT22;62667;48.698;8.762;2022-12-18T08:39:20;-4.40;91.60
10868;DHT22;62667;48.698;8.762;2022-12-18T08:41:47;-4.50;90.80
10868;DHT22;62667;48.698;8.762;2022-12-18T08:44:28;-4.50;91.70
10868;DHT22;62667;48.698;8.762;2022-12-18T08:47:07;-4.30;91.80
10868;DHT22;62667;48.698;8.762;2022-12-18T08:49:35;-4.20;90.90
10868;DHT22;62667;48.698;8.762;2022-12-18T08:52:03;-4.30;89.50
10868;DHT22;62667;48.698;8.762;2022-12-18T08:54:30;-4.20;90.50
10868;DHT22;62667;48.698;8.762;2022-12-18T08:56:57;-4.10;91.20
10868;DHT22;62667;48.698;8.762;2022-12-18T08:59:24;-3.90;91.10
10868;DHT22;62667;48.698;8.762;2022-12-18T09:01:57;-3.90;90.30
10868;DHT22;62667;48.698;8.762;2022-12-18T09:04:25;-3.80;89.90
10868;DHT22;62667;48.698;8.762;2022-12-18T09:06:55;-3.50;89.40
10868;DHT22;62667;48.698;8.762;2022-12-18T09:09:22;-3.50;87.40
10868;DHT22;62667;48.698;8.762;2022-12-18T09:11:50;-3.40;87.50
10868;DHT22;62667;48.698;8.762;2022-12-18T09:14:17;-3.30;87.40
10868;DHT22;62667;48.698;8.762;2022-12-18T09:19:11;-3.30;84.70
10868;DHT22;62667;48.698;8.762;2022-12-18T09:21:40;-3.10;85.30
10868;DHT22;62667;48.698;8.762;2022-12-18T09:24:11;-3.10;85.70
10868;DHT22;62667;48.698;8.762;2022-12-18T09:26:39;-2.90;85.20
10868;DHT22;62667;48.698;8.762;2022-12-18T09:29:06;-2.90;84.00
10868;DHT22;62667;48.698;8.762;2022-12-18T09:31:34;-2.70;83.50
10868;DHT22;62667;48.698;8.762;2022-12-18T09:34:05;-2.60;82.00
10868;DHT22;62667;48.698;8.762;2022-12-18T09:36:33;-2.60;81.00
10868;DHT22;62667;48.698;8.762;2022-12-18T09:39:02;-2.70;81.70
10868;DHT22;62667;48.698;8.762;2022-12-18T09:41:42;-2.50;81.20
10868;DHT22;62667;48.698;8.762;2022-12-18T09:44:24;-2.60;80.20
10868;DHT22;62667;48.698;8.762;2022-12-18T09:47:00;-2.30;81.30
10868;DHT22;62667;48.698;8.762;2022-12-18T09:52:16;-2.30;75.40
10868;DHT22;62667;48.698;8.762;2022-12-18T09:54:52;-2.60;77.90
10868;DHT22;62667;48.698;8.762;2022-12-18T09:57:23;-2.70;79.70
10868;DHT22;62667;48.698;8.762;2022-12-18T09:59:55;-2.90;79.00
10868;DHT22;62667;48.698;8.762;2022-12-18T10:02:26;-3.10;83.50
10868;DHT22;62667;48.698;8.762;2022-12-18T10:05:06;-3.20;83.90
10868;DHT22;62667;48.698;8.762;2022-12-18T10:07:45;-3.30;83.10
10868;DHT22;62667;48.698;8.762;2022-12-18T10:10:32;-3.30;86.40
10868;DHT22;62667;48.698;8.762;2022-12-18T10:13:12;-3.10;85.40
10868;DHT22;62667;48.698;8.762;2022-12-18T10:15:54;-3.20;84.90
10868;DHT22;62667;48.698;8.762;2022-12-18T10:18:54;-3.10;85.60
10868;DHT22;62667;48.698;8.762;2022-12-18T10:21:34;-2.90;85.20
10868;DHT22;62667;48.698;8.762;2022-12-18T10:24:14;-3.10;85.80
10868;DHT22;62667;48.698;8.762;2022-12-18T10:26:52;-3.00;86.30
10868;DHT22;62667;48.698;8.762;2022-12-18T10:29:22;-3.20;89.10
10868;DHT22;62667;48.698;8.762;2022-12-18T10:31:51;-3.20;87.90
10868;DHT22;62667;48.698;8.762;2022-12-18T10:34:18;-2.90;86.50
10868;DHT22;62667;48.698;8.762;2022-12-18T10:36:47;-3.10;86.40
10868;DHT22;62667;48.698;8.762;2022-12-18T10:39:20;-3.20;87.30
10868;DHT22;62667;48.698;8.762;2022-12-18T10:42:09;-3.30;88.90
10868;DHT22;62667;48.698;8.762;2022-12-18T10:44:38;-3.00;89.50
10868;DHT22;62667;48.698;8.762;2022-12-18T10:47:12;-2.90;87.60
10868;DHT22;62667;48.698;8.762;2022-12-18T10:49:47;-2.70;86.40
10868;DHT22;62667;48.698;8.762;2022-12-18T10:52:19;-2.60;85.40
10868;DHT22;62667;48.698;8.762;2022-12-18T10:54:50;-2.40;85.60
10868;DHT22;62667;48.698;8.762;2022-12-18T10:57:32;-2.50;84.40
10868;DHT22;62667;48.698;8.762;2022-12-18T11:00:22;-2.20;85.50
10868;DHT22;62667;48.698;8.762;2022-12-18T11:02:51;-2.00;82.00
10868;DHT22;62667;48.698;8.762;2022-12-18T11:05:30;-1.60;80.40
10868;DHT22;62667;48.698;8.762;2022-12-18T11:07:59;-1.50;76.40
10868;DHT22;62667;48.698;8.762;2022-12-18T11:10:31;-1.50;76.90
10868;DHT22;62667;48.698;8.762;2022-12-18T11:13:11;-1.50;75.30
10868;DHT22;62667;48.698;8.762;2022-12-18T11:15:44;-1.40;74.20
10868;DHT22;62667;48.698;8.762;2022-12-18T11:18:17;-1.30;73.40
10868;DHT22;62667;48.698;8.762;2022-12-18T11:20:53;-1.50;74.00
10868;DHT22;62667;48.698;8.762;2022-12-18T11:23:23;-0.20;73.50
10868;DHT22;62667;48.698;8.762;2022-12-18T11:25:53;0.30;68.00
10868;DHT22;62667;48.698;8.762;2022-12-18T11:28:36;1.40;58.40
10868;DHT22;62667;48.698;8.762;2022-12-18T11:31:19;1.20;57.20
10868;DHT22;62667;48.698;8.762;2022-12-18T11:33:56;0.80;58.20
10868;DHT22;62667;48.698;8.762;2022-12-18T11:36:30;1.70;56.50
10868;DHT22;62667;48.698;8.762;2022-12-18T11:39:09;2.20;51.80
10868;DHT22;62667;48.698;8.762;2022-12-18T11:41:47;3.20;51.20
10868;DHT22;62667;48.698;8.762;2022-12-18T11:44:40;5.70;49.50
10868;DHT22;62667;48.698;8.762;2022-12-18T11:47:18;7.00;39.30
10868;DHT22;62667;48.698;8.762;2022-12-18T11:49:52;8.40;36.00
10868;DHT22;62667;48.698;8.762;2022-12-18T11:52:24;8.90;33.90
10868;DHT22;62667;48.698;8.762;2022-12-18T11:54:56;8.80;31.00
10868;DHT22;62667;48.698;8.762;2022-12-18T11:57:33;9.30;31.70
10868;DHT22;62667;48.698;8.762;2022-12-18T12:02:57;6.10;35.90
10868;DHT22;62667;48.698;8.762;2022-12-18T12:05:49;5.00;38.30
10868;DHT22;62667;48.698;8.762;2022-12-18T12:08:37;6.00;38.00
10868;DHT22;62667;48.698;8.762;2022-12-18T12:11:15;5.80;38.10
10868;DHT22;62667;48.698;8.762;2022-12-18T12:14:00;5.70;38.30
10868;DHT22;62667;48.698;8.762;2022-12-18T12:16:45;6.60;37.10
10868;DHT22;62667;48.698;8.762;2022-12-18T12:19:30;5.50;35.80
10868;DHT22;62667;48.698;8.762;2022-12-18T12:22:11;4.00;40.40
10868;DHT22;62667;48.698;8.762;2022-12-18T12:24:53;4.10;44.70
10868;DHT22;62667;48.698;8.762;2022-12-18T12:27:35;3.80;45.40
10868;DHT22;62667;48.698;8.762;2022-12-18T12:30:10;3.50;43.70
10868;DHT22;62667;48.698;8.762;2022-12-18T12:32:54;4.20;46.10
10868;DHT22;62667;48.698;8.762;2022-12-18T12:35:36;4.90;42.70
10868;DHT22;62667;48.698;8.762;2022-12-18T12:38:12;5.30;41.50
10868;DHT22;62667;48.698;8.762;2022-12-18T12:40:46;5.90;39.60
10868;DHT22;62667;48.698;8.762;2022-12-18T12:43:22;6.20;37.50
10868;DHT22;62667;48.698;8.762;2022-12-18T12:45:56;6.30;36.70
10868;DHT22;62667;48.698;8.762;2022-12-18T12:51:13;6.90;37.60
10868;DHT22;62667;48.698;8.762;2022-12-18T12:53:43;7.30;36.40
10868;DHT22;62667;48.698;8.762;2022-12-18T12:56:15;7.60;35.00
10868;DHT22;62667;48.698;8.762;2022-12-18T12:58:50;7.40;34.00
10868;DHT22;62667;48.698;8.762;2022-12-18T13:01:30;7.20;35.10
10868;DHT22;62667;48.698;8.762;2022-12-18T13:04:12;7.10;34.60
10868;DHT22;62667;48.698;8.762;2022-12-18T13:06:50;7.50;35.20
10868;DHT22;62667;48.698;8.762;2022-12-18T13:09:30;7.60;34.60
10868;DHT22;62667;48.698;8.762;2022-12-18T13:12:05;7.50;33.70
10868;DHT22;62667;48.698;8.762;2022-12-18T13:15:12;7.30;34.50
10868;DHT22;62667;48.698;8.762;2022-12-18T13:17:46;6.80;34.40
10868;DHT22;62667;48.698;8.762;2022-12-18T13:20:15;6.40;35.70
10868;DHT22;62667;48.698;8.762;2022-12-18T13:22:44;6.10;36.80
10868;DHT22;62667;48.698;8.762;2022-12-18T13:25:31;5.40;38.20
10868;DHT22;62667;48.698;8.762;2022-12-18T13:28:04;5.50;39.20
10868;DHT22;62667;48.698;8.762;2022-12-18T13:30:49;5.50;39.30
10868;DHT22;62667;48.698;8.762;2022-12-18T13:33:47;5.50;39.20
10868;DHT22;62667;48.698;8.762;2022-12-18T13:36:26;5.40;39.60
10868;DHT22;62667;48.698;8.762;2022-12-18T13:39:21;5.90;39.50
10868;DHT22;62667;48.698;8.762;2022-12-18T13:41:53;6.10;38.70
10868;DHT22;62667;48.698;8.762;2022-12-18T13:45:00;6.40;37.60
10868;DHT22;62667;48.698;8.762;2022-12-18T13:47:32;6.40;36.90
10868;DHT22;62667;48.698;8.762;2022-12-18T13:50:04;6.30;37.50
10868;DHT22;62667;48.698;8.762;2022-12-18T13:52:39;6.00;37.50
10868;DHT22;62667;48.698;8.762;2022-12-18T13:55:16;5.60;38.00
10868;DHT22;62667;48.698;8.762;2022-12-18T13:57:46;5.50;38.60
10868;DHT22;62667;48.698;8.762;2022-12-18T14:00:25;4.90;40.20
10868;DHT22;62667;48.698;8.762;2022-12-18T14:05:23;4.30;55.30
10868;DHT22;62667;48.698;8.762;2022-12-18T14:07:53;4.00;48.90
10868;DHT22;62667;48.698;8.762;2022-12-18T14:10:22;3.80;45.90
10868;DHT22;62667;48.698;8.762;2022-12-18T14:38:28;2.20;98.00
10868;DHT22;62667;48.698;8.762;2022-12-18T14:41:02;2.20;80.40
10868;DHT22;62667;48.698;8.762;2022-12-18T14:43:33;1.80;75.60
10868;DHT22;62667;48.698;8.762;2022-12-18T14:46:02;1.80;81.40
10868;DHT22;62667;48.698;8.762;2022-12-18T14:48:36;1.40;80.30
10868;DHT22;62667;48.698;8.762;2022-12-18T14:51:12;1.20;81.80
10868;DHT22;62667;48.698;8.762;2022-12-18T14:53:46;1.00;85.60
10868;DHT22;62667;48.698;8.762;2022-12-18T14:56:16;0.70;73.30
10868;DHT22;62667;48.698;8.762;2022-12-18T14:58:47;0.70;83.80
10868;DHT22;62667;48.698;8.762;2022-12-18T15:01:23;0.60;83.00
10868;DHT22;62667;48.698;8.762;2022-12-18T15:03:53;0.30;84.30
10868;DHT22;62667;48.698;8.762;2022-12-18T15:06:27;0.20;87.20
10868;DHT22;62667;48.698;8.762;2022-12-18T15:14:28;-0.30;91.40
10868;DHT22;62667;48.698;8.762;2022-12-18T15:17:02;-0.40;98.90
10868;DHT22;62667;48.698;8.762;2022-12-18T15:24:44;-0.70;95.20
10868;DHT22;62667;48.698;8.762;2022-12-18T15:30:23;-1.00;88.20
10868;DHT22;62667;48.698;8.762;2022-12-18T15:32:52;-1.10;84.90
10868;DHT22;62667;48.698;8.762;2022-12-18T15:35:56;-1.10;84.40
10868;DHT22;62667;48.698;8.762;2022-12-18T15:38:24;-1.40;97.70
10868;DHT22;62667;48.698;8.762;2022-12-18T15:40:53;-1.30;93.80
10868;DHT22;62667;48.698;8.762;2022-12-18T15:43:22;-1.50;95.00
10868;DHT22;62667;48.698;8.762;2022-12-18T15:46:03;-1.50;99.90
10868;DHT22;62667;48.698;8.762;2022-12-18T15:48:33;-1.50;88.80
10868;DHT22;62667;48.698;8.762;2022-12-18T15:51:02;-1.60;78.70
10868;DHT22;62667;48.698;8.762;2022-12-18T15:53:32;-1.60;75.70
10868;DHT22;62667;48.698;8.762;2022-12-18T15:56:01;-1.80;76.90
10868;DHT22;62667;48.698;8.762;2022-12-18T15:58:45;-1.70;95.80
10868;DHT22;62667;48.698;8.762;2022-12-18T16:01:13;-1.80;83.70
10868;DHT22;62667;48.698;8.762;2022-12-18T16:03:52;-1.70;91.10
10868;DHT22;62667;48.698;8.762;2022-12-18T16:06:20;-1.80;93.80
10868;DHT22;62667;48.698;8.762;2022-12-18T16:08:47;-1.80;87.40
10868;DHT22;62667;48.698;8.762;2022-12-18T16:11:22;-1.80;77.70
10868;DHT22;62667;48.698;8.762;2022-12-18T16:14:05;-1.80;78.20
10868;DHT22;62667;48.698;8.762;2022-12-18T16:16:33;-1.80;77.80
10868;DHT22;62667;48.698;8.762;2022-12-18T16:19:00;-1.80;77.40
10868;DHT22;62667;48.698;8.762;2022-12-18T16:21:27;-1.90;77.50
10868;DHT22;62667;48.698;8.762;2022-12-18T16:23:55;-1.80;77.40
10868;DHT22;62667;48.698;8.762;2022-12-18T16:26:23;-1.80;77.90
10868;DHT22;62667;48.698;8.762;2022-12-18T16:28:50;-1.70;78.30
10868;DHT22;62667;48.698;8.762;2022-12-18T16:31:19;-1.70;78.50
10868;DHT22;62667;48.698;8.762;2022-12-18T16:33:46;-1.70;78.50
10868;DHT22;62667;48.698;8.762;2022-12-18T16:36:13;-1.80;78.40
10868;DHT22;62667;48.698;8.762;2022-12-18T16:38:41;-1.80;79.70
10868;DHT22;62667;48.698;8.762;2022-12-18T16:41:18;-1.70;82.00
10868;DHT22;62667;48.698;8.762;2022-12-18T16:43:59;-1.70;81.50
10868;DHT22;62667;48.698;8.762;2022-12-18T16:46:26;-1.70;81.60
10868;DHT22;62667;48.698;8.762;2022-12-18T16:48:53;-1.80;82.60
10868;DHT22;62667;48.698;8.762;2022-12-18T16:51:21;-1.70;83.00
10868;DHT22;62667;48.698;8.762;2022-12-18T16:53:48;-1.80;83.40
10868;DHT22;62667;48.698;8.762;2022-12-18T16:56:15;-1.80;84.40
10868;DHT22;62667;48.698;8.762;2022-12-18T16:58:42;-2.00;85.40
10868;DHT22;62667;48.698;8.762;2022-12-18T17:01:11;-2.00;96.30
10868;DHT22;62667;48.698;8.762;2022-12-18T17:03:38;-1.90;98.50